nws-alerts: Checking more than four warning/county codes can delay the loading of your pages. You should use a cron job to get the data.

Nearby METAR Weather Reports

 

KETB - West Bend, WI
Distance from station: E 4mi, 6km
Updated: 11/19/2019 4:55am
Overcast
Overcast
 Wind from W
Wind: W 3 mph , 6 km/h
Temperature: 32°F , 0°C
Dew Point: 32°F , 0°C
Humidity: 100%
Barometer: 29.73 inHg , 1006.8 hPa
Clouds: Overcast
Visibility: 10 miles , 16 km
Cloud details: Overcast 900 ft
2019/11/19 10:55 KETB 191055Z AUTO 28003KT 10SM OVC009 00/00 A2973 RMK AO2
KFLD - Fond Du Lac, WI
Distance from station: W 34mi, 54km
Updated: 11/19/2019 4:53am
Overcast
Overcast
 Wind from calm
Wind: Calm
Temperature: 34°F , 1°C
Dew Point: 28°F , -2°C
Humidity: 81%
Barometer: 29.74 inHg , 1007.1 hPa
Clouds: Overcast
Visibility: 10 miles , 16 km
Cloud details: Overcast 1200 ft
2019/11/19 10:53 KFLD 191053Z AUTO 00000KT 10SM OVC012 01/M02 A2974 RMK AO2 SLP078 T00061022
 
KSBM - Sheboygan, WI
Distance from station: NE 36mi, 57km
Updated: 11/19/2019 4:53am
Overcast
Overcast
 Wind from NNW
Wind: NNW 3 mph , 6 km/h
Temperature: 34°F , 1°C
Dew Point: 30°F , -1°C
Humidity: 87%
Barometer: 29.74 inHg , 1007.1 hPa
Clouds: Overcast
Visibility: 8 miles , 13 km
Cloud details: Overcast 900 ft
2019/11/19 10:53 KSBM 191053Z AUTO 33003KT 8SM OVC009 01/M01 A2974 RMK AO2 SLP078 T00061011
KMKE - Milwaukee, WI
Distance from station: S 44mi, 70km
Updated: 11/19/2019 4:52am
Overcast
Overcast
 Wind from WNW
Wind: WNW 6 mph , 9 km/h
Temperature: 36°F , 2°C
Wind Chill: 31°F , -1°C
Dew Point: 28°F , -2°C
Humidity: 75%
Barometer: 29.75 inHg , 1007.5 hPa
Clouds: Overcast
Visibility: 10 miles , 16 km
Cloud details: Overcast 1300 ft
2019/11/19 10:52 KMKE 191052Z 29005KT 10SM OVC013 02/M02 A2975 RMK AO2 SLP081 T00171022
 
KOSH - Oshkosh, WI
Distance from station: WNW 52mi, 83km
Updated: 11/19/2019 4:53am
Overcast
Overcast
 Wind from WNW
Wind: WNW 5 mph , 7 km/h
Temperature: 32°F , 0°C
Wind Chill: 27°F , -3°C
Dew Point: 28°F , -2°C
Humidity: 87%
Barometer: 29.74 inHg , 1007.1 hPa
Clouds: Overcast
Visibility: 7 miles , 11 km
Cloud details: Overcast 1000 ft
2019/11/19 10:53 KOSH 191053Z AUTO 29004KT 7SM OVC010 00/M02 A2974 RMK AO2 SLP082 T00001022
KENW - Kenosha, WI
Distance from station: SSE 69mi, 111km
Updated: 11/19/2019 4:53am
Overcast
Overcast
 Wind from W
Wind: W 3 mph , 6 km/h
Temperature: 36°F , 2°C
Dew Point: 30°F , -1°C
Humidity: 81%
Barometer: 29.75 inHg , 1007.5 hPa
Clouds: Overcast
Visibility: 10 miles , 16 km
Cloud details: Overcast 1300 ft
2019/11/19 10:53 KENW 191053Z AUTO 27003KT 10SM OVC013 02/M01 A2975 RMK AO2 SLP081 T00221006
 
KMSN - Madison, WI
Distance from station: SW 69mi, 111km
Updated: 11/19/2019 4:53am
Mist, Overcast
Mist, Overcast
 Wind from calm
Wind: Calm
Temperature: 32°F , 0°C
Dew Point: 30°F , -1°C
Humidity: 93%
Barometer: 29.73 inHg , 1006.8 hPa
Summary: Mist
Clouds: Overcast
Visibility: 6 miles , 10 km
Cloud details: Overcast 500 ft
2019/11/19 10:53 KMSN 191053Z AUTO 00000KT 6SM BR OVC005 00/M01 A2973 RMK AO2 SLP078 T00001011
KSAW - Marquette, MI
Distance from station: N 262mi, 421km
Updated: 11/19/2019 4:58am
Overcast
Overcast
 Wind from calm
Wind: Calm
Temperature: 32°F , 0°C
Dew Point: 32°F , 0°C
Humidity: 100%
Barometer: 29.69 inHg , 1005.4 hPa
Clouds: Overcast
Visibility: 10 miles , 16 km
Cloud details: Partly cloudy 2200 ft
Overcast 4000 ft
2019/11/19 10:58 KSAW 191058Z AUTO 00000KT 10SM SCT022 OVC040 00/00 A2969 RMK AO2 T00001005
 
KIMT - Iron Mountain, MI
Distance from station: NNW 201mi, 323km
Updated: 11/19/2019 4:54am
Overcast
Overcast
 Wind from calm
Wind: Calm
Temperature: 30°F , -1°C
Dew Point: 28°F , -2°C
Humidity: 93%
Barometer: 29.69 inHg , 1005.4 hPa
Clouds: Overcast
Visibility: 10 miles , 16 km
Cloud details: Overcast 2600 ft
2019/11/19 10:54 KIMT 191054Z AUTO 00000KT 10SM OVC026 M01/M02 A2969 RMK AO2 SLP068 T10061022
KGRB - Green Bay, WI
Distance from station: NNW 87mi, 140km
Updated: 11/19/2019 4:53am
Overcast
Overcast
 Wind from calm
Wind: Calm
Temperature: 32°F , 0°C
Dew Point: 28°F , -2°C
Humidity: 87%
Barometer: 29.74 inHg , 1007.1 hPa
Clouds: Overcast
Visibility: 10 miles , 16 km
Cloud details: Overcast 1600 ft
2019/11/19 10:53 KGRB 191053Z AUTO 00000KT 10SM OVC016 00/M02 A2974 RMK AO2 SLP081 T00001022
 
KAUW - Wausau, WI
Distance from station: NW 155mi, 249km
Updated: 11/19/2019 4:54am
Overcast
Overcast
 Wind from calm
Wind: Calm
Temperature: 28°F , -2°C
Dew Point: 27°F , -3°C
Humidity: 93%
Barometer: 29.71 inHg , 1006.1 hPa
Clouds: Overcast
Visibility: 9 miles , 14 km
Cloud details: Overcast 900 ft
2019/11/19 10:54 KAUW 191054Z AUTO 00000KT 9SM OVC009 M02/M03 A2971 RMK AO2 SLP078 T10221033
KORD - Chicago O'Hare, IL
Distance from station: S 113mi, 181km
Updated: 11/19/2019 4:51am
Overcast
Overcast
 Wind from SSW
Wind: SSW 3 mph , 6 km/h
Temperature: 36°F , 2°C
Dew Point: 30°F , -1°C
Humidity: 81%
Barometer: 29.75 inHg , 1007.5 hPa
Clouds: Overcast
Visibility: 10 miles , 16 km
Cloud details: Overcast 1400 ft
2019/11/19 10:51 KORD 191051Z 20003KT 10SM OVC014 02/M01 A2975 RMK AO2 SLP078 T00171011
 
KVOK - WIANG Volk Field, Camp Douglas, WI
Distance from station: WNW 120mi, 193km
Updated: 11/19/2019 4:56am
Overcast
Overcast
 Wind from ESE
Wind: ESE 3 mph , 6 km/h
Temperature: 32°F , 0°C
Dew Point: 32°F , 0°C
Humidity: 100%
Barometer: 29.72 inHg , 1006.4 hPa
Clouds: Overcast
Visibility: 10 miles , 16 km
Cloud details: Overcast 1200 ft
2019/11/19 10:56 KVOK 191056Z AUTO 12003KT 10SM OVC012 00/00 A2972 RMK AO2 SLP077 T10041004 $
KLNR - Lone Rock, WI
Distance from station: W 114mi, 183km
Updated: 11/19/2019 5:12am
Light snow, Mist, Overcast
Light snow, Mist, Overcast
 Wind from E
Wind: E 6 mph , 9 km/h
Temperature: 34°F , 1°C
Wind Chill: 29°F , -2°C
Dew Point: 30°F , -1°C
Humidity: 87%
Barometer: 29.74 inHg , 1007.1 hPa
Summary: Light snow, Mist
Clouds: Overcast
Visibility: 2 1/2 miles , 4 km
Cloud details: Partly cloudy 900 ft
Overcast 3100 ft
2019/11/19 11:12 KLNR 191112Z AUTO 08005KT 2 1/2SM -SN BR SCT009 OVC031 01/M01 A2974 RMK AO2 SNB09 P0000 T00061011